Time;durP1;ratioP1;P1;durP2;ratioP2;P2;SDS_P1;SDS_P2;PMS_P1;PMS_P2;Temp;Humidity;BMP_temperature;BMP_pressure;BME280_temperature;BME280_humidity;BME280_pressure;Samples;Min_cycle;Max_cycle;Signal;HPM_P1;HPM_P2
2021/06/24 00:01:56;;;;;;;25.50;19.77;;;18.70;98.30;;;;;;3972312;29;20577;-84
2021/06/24 00:03:59;;;;;;;31.70;25.80;;;18.60;98.30;;;;;;3970626;29;20843;-84
2021/06/24 00:06:04;;;;;;;27.00;20.43;;;18.70;98.30;;;;;;3971284;29;20854;-84
2021/06/24 00:08:08;;;;;;;14.50;10.57;;;18.70;98.30;;;;;;3971640;29;21048;-84
2021/06/24 00:10:13;;;;;;;13.10;10.50;;;18.70;98.30;;;;;;3972331;29;20473;-84
2021/06/24 00:12:17;;;;;;;10.63;9.30;;;18.70;98.30;;;;;;3972575;29;20954;-84
2021/06/24 00:14:20;;;;;;;11.80;9.50;;;18.50;98.30;;;;;;3971275;29;21005;-84
2021/06/24 00:16:23;;;;;;;12.70;10.53;;;18.50;98.30;;;;;;3972215;29;20486;-84
2021/06/24 00:18:27;;;;;;;19.60;11.90;;;18.50;98.30;;;;;;3972125;29;20984;-84
2021/06/24 00:20:30;;;;;;;16.77;12.40;;;18.50;98.30;;;;;;3970886;29;21112;-84
2021/06/24 00:22:33;;;;;;;10.57;8.33;;;18.50;98.30;;;;;;4102077;24;20572;-82
2021/06/24 00:24:37;;;;;;;10.83;8.47;;;18.50;98.30;;;;;;3945267;30;20479;-82
2021/06/24 00:26:41;;;;;;;12.97;7.80;;;18.40;98.30;;;;;;3945277;30;20483;-82
2021/06/24 00:28:45;;;;;;;10.27;6.90;;;18.40;98.30;;;;;;3941741;30;20545;-83
2021/06/24 00:30:49;;;;;;;12.50;8.27;;;18.40;98.30;;;;;;3943226;30;20904;-82
2021/06/24 00:32:53;;;;;;;14.23;8.97;;;18.30;98.30;;;;;;3945414;30;21034;-82
2021/06/24 00:35:00;;;;;;;12.00;8.77;;;18.20;98.30;;;;;;3943847;30;20972;-82
2021/06/24 00:37:03;;;;;;;14.50;8.07;;;18.20;98.30;;;;;;3944676;30;20487;-82
2021/06/24 00:39:06;;;;;;;8.70;6.37;;;18.30;98.30;;;;;;3944212;30;20493;-82
2021/06/24 00:41:10;;;;;;;7.57;6.87;;;18.30;98.30;;;;;;3944015;30;20535;-84
2021/06/24 00:43:16;;;;;;;8.27;6.53;;;18.30;98.30;;;;;;3944671;30;20542;-82
2021/06/24 00:45:20;;;;;;;10.20;7.27;;;18.30;98.30;;;;;;3945012;30;20971;-82
2021/06/24 00:47:24;;;;;;;8.70;6.90;;;18.20;98.30;;;;;;3943570;30;20483;-83
2021/06/24 00:49:27;;;;;;;8.33;6.87;;;18.20;98.30;;;;;;3944217;30;20487;-82
2021/06/24 00:51:30;;;;;;;9.00;6.60;;;18.20;98.30;;;;;;3945653;30;20998;-83
2021/06/24 00:53:33;;;;;;;9.63;6.07;;;18.20;98.30;;;;;;3947115;30;20471;-82
2021/06/24 00:55:43;;;;;;;11.33;7.27;;;18.10;98.30;;;;;;3949841;30;20479;-82
2021/06/24 00:57:46;;;;;;;17.67;7.07;;;18.10;98.30;;;;;;3946547;30;20497;-83
2021/06/24 00:59:51;;;;;;;10.13;6.13;;;18.10;98.30;;;;;;3947366;30;20478;-82
2021/06/24 01:01:54;;;;;;;7.53;6.10;;;18.10;98.30;;;;;;3947729;30;20514;-82
2021/06/24 01:03:57;;;;;;;7.00;6.30;;;18.10;98.30;;;;;;3946346;30;20482;-82
2021/06/24 01:06:00;;;;;;;10.17;5.97;;;18.00;98.30;;;;;;3946562;30;20483;-83
2021/06/24 01:08:03;;;;;;;7.57;6.10;;;18.00;98.30;;;;;;3944585;30;20489;-82
2021/06/24 01:10:07;;;;;;;7.70;6.00;;;18.10;98.30;;;;;;3946181;30;20558;-82
2021/06/24 01:12:11;;;;;;;9.40;6.00;;;18.10;98.30;;;;;;3947057;30;20494;-81
2021/06/24 01:14:15;;;;;;;11.90;5.87;;;18.00;98.30;;;;;;3948260;30;20486;-82
2021/06/24 01:16:20;;;;;;;7.40;5.93;;;18.00;98.30;;;;;;3946272;30;20491;-83
2021/06/24 01:18:23;;;;;;;9.03;6.50;;;18.00;98.30;;;;;;3945766;30;20870;-82
2021/06/24 01:20:28;;;;;;;8.20;6.50;;;18.00;98.30;;;;;;3945512;30;20474;-81
2021/06/24 01:22:32;;;;;;;8.50;5.70;;;18.00;98.30;;;;;;3945817;30;20513;-82
2021/06/24 01:24:41;;;;;;;9.80;5.63;;;18.00;98.30;;;;;;3944731;30;20494;-82
2021/06/24 01:26:44;;;;;;;7.10;6.10;;;18.00;98.30;;;;;;3945269;30;20889;-83
2021/06/24 01:28:47;;;;;;;11.23;6.33;;;18.00;98.30;;;;;;3945469;30;20521;-83
2021/06/24 01:30:50;;;;;;;11.30;6.20;;;18.00;98.30;;;;;;3946811;30;20482;-82
2021/06/24 01:32:54;;;;;;;8.87;5.60;;;18.00;98.30;;;;;;3949754;30;20534;-82
2021/06/24 01:34:58;;;;;;;6.73;5.40;;;17.90;98.30;;;;;;3945642;30;20995;-82
2021/06/24 01:37:01;;;;;;;12.57;7.27;;;17.90;98.30;;;;;;3944671;30;20491;-83
2021/06/24 01:39:07;;;;;;;7.23;5.57;;;17.90;98.30;;;;;;3944350;30;20483;-82
2021/06/24 01:41:13;;;;;;;8.77;6.13;;;17.90;98.30;;;;;;3946428;30;20513;-82
2021/06/24 01:43:16;;;;;;;7.77;5.40;;;17.90;98.30;;;;;;3947283;30;22250;-82
2021/06/24 01:45:20;;;;;;;9.80;5.80;;;18.00;98.30;;;;;;3943734;30;20523;-81
2021/06/24 01:47:23;;;;;;;8.60;5.83;;;18.00;98.30;;;;;;3945503;30;20481;-82
2021/06/24 01:49:26;;;;;;;6.50;5.73;;;18.00;98.30;;;;;;3944977;30;20518;-83
2021/06/24 01:51:30;;;;;;;8.47;6.27;;;18.00;98.30;;;;;;3945948;30;20590;-82
2021/06/24 01:53:33;;;;;;;7.90;5.80;;;17.90;98.30;;;;;;3942271;30;20507;-83
2021/06/24 01:55:37;;;;;;;9.60;6.47;;;17.90;98.30;;;;;;3949148;30;20482;-83
2021/06/24 01:57:42;;;;;;;10.23;5.67;;;17.80;98.30;;;;;;3953272;30;20578;-82
2021/06/24 01:59:46;;;;;;;6.80;5.60;;;17.70;98.30;;;;;;3953176;30;20480;-82
2021/06/24 02:01:49;;;;;;;7.27;5.67;;;17.80;98.30;;;;;;3950147;30;21214;-81
2021/06/24 02:03:54;;;;;;;6.13;5.53;;;17.70;98.30;;;;;;3953223;30;20526;-82
2021/06/24 02:05:58;;;;;;;7.50;6.37;;;17.80;98.30;;;;;;3953295;30;20574;-82
2021/06/24 02:08:01;;;;;;;6.57;5.70;;;17.80;98.30;;;;;;3951940;30;20574;-83
2021/06/24 02:10:05;;;;;;;8.00;6.10;;;17.80;98.30;;;;;;3950793;30;20930;-83
2021/06/24 02:12:09;;;;;;;7.30;5.70;;;17.80;98.30;;;;;;3946634;30;20527;-84
2021/06/24 02:14:13;;;;;;;6.33;5.37;;;17.90;98.30;;;;;;3946538;30;20495;-82
2021/06/24 02:16:16;;;;;;;6.50;5.83;;;17.90;98.30;;;;;;3950446;30;20971;-83
2021/06/24 02:18:20;;;;;;;9.20;5.57;;;17.80;98.30;;;;;;3945150;30;20514;-83
2021/06/24 02:20:23;;;;;;;7.20;5.90;;;17.80;98.30;;;;;;3946278;30;20491;-83
2021/06/24 02:22:27;;;;;;;8.47;5.87;;;17.80;98.30;;;;;;3946482;30;20950;-83
2021/06/24 02:24:30;;;;;;;10.90;6.80;;;17.80;98.30;;;;;;3945816;30;20483;-83
2021/06/24 02:26:33;;;;;;;8.83;6.03;;;17.80;98.30;;;;;;3946088;30;20890;-83
2021/06/24 02:28:36;;;;;;;8.30;6.23;;;17.80;98.30;;;;;;3946048;30;20475;-83
2021/06/24 02:30:41;;;;;;;8.80;5.77;;;17.80;98.30;;;;;;3945050;30;20565;-83
2021/06/24 02:32:44;;;;;;;8.80;5.83;;;17.70;98.30;;;;;;3946687;30;20884;-83
2021/06/24 02:34:48;;;;;;;9.63;5.83;;;17.60;98.30;;;;;;3946725;30;20924;-85
2021/06/24 02:36:51;;;;;;;9.37;6.17;;;17.60;98.30;;;;;;3945438;30;20482;-83
2021/06/24 02:38:54;;;;;;;9.70;6.63;;;17.60;98.30;;;;;;3944987;30;20494;-83
2021/06/24 02:40:57;;;;;;;7.93;6.23;;;17.70;98.30;;;;;;3945300;30;20487;-83
2021/06/24 02:43:00;;;;;;;9.43;6.90;;;17.70;98.30;;;;;;3946057;30;20509;-83
2021/06/24 02:45:05;;;;;;;12.20;6.90;;;17.70;98.30;;;;;;3947591;30;20483;-83
2021/06/24 02:47:09;;;;;;;7.97;5.50;;;17.60;98.30;;;;;;3941531;30;20487;-83
2021/06/24 02:49:13;;;;;;;8.70;6.20;;;17.60;98.30;;;;;;3944587;30;20902;-83
2021/06/24 02:51:16;;;;;;;6.63;6.03;;;17.50;98.30;;;;;;3943483;30;20511;-82
2021/06/24 02:53:19;;;;;;;6.33;5.73;;;17.50;98.30;;;;;;3946066;30;20499;-83
2021/06/24 02:55:22;;;;;;;8.17;6.40;;;17.50;98.30;;;;;;3944508;30;20964;-83
2021/06/24 02:57:25;;;;;;;6.90;6.20;;;17.50;98.30;;;;;;3945245;30;20483;-83
2021/06/24 02:59:29;;;;;;;8.27;6.30;;;17.50;98.30;;;;;;3945447;30;20479;-82
2021/06/24 03:01:32;;;;;;;7.37;6.60;;;17.60;98.30;;;;;;3945007;30;20493;-83
2021/06/24 03:03:36;;;;;;;11.13;6.37;;;17.60;98.30;;;;;;3945911;30;20564;-82
2021/06/24 03:05:39;;;;;;;7.77;7.07;;;17.60;98.30;;;;;;3946049;30;20573;-82
2021/06/24 03:07:42;;;;;;;8.10;5.50;;;17.70;98.30;;;;;;3944564;30;20846;-83
2021/06/24 03:09:46;;;;;;;7.73;5.80;;;17.70;98.30;;;;;;3945125;30;20848;-82
2021/06/24 03:11:49;;;;;;;10.33;5.90;;;17.80;98.30;;;;;;3947760;30;20583;-83
2021/06/24 03:13:52;;;;;;;6.87;5.90;;;17.90;98.30;;;;;;3946786;30;21308;-83
2021/06/24 03:15:55;;;;;;;11.80;5.80;;;17.80;98.30;;;;;;3946501;30;20471;-82
2021/06/24 03:17:59;;;;;;;11.10;8.23;;;17.90;98.30;;;;;;3944520;30;20762;-83
2021/06/24 03:20:04;;;;;;;14.13;9.07;;;18.00;98.30;;;;;;3944826;30;20984;-83
2021/06/24 03:22:08;;;;;;;13.63;10.13;;;18.00;98.30;;;;;;3943507;30;20598;-84
2021/06/24 03:24:11;;;;;;;16.57;14.77;;;18.00;98.30;;;;;;3946178;30;20856;-83
2021/06/24 03:26:14;;;;;;;11.33;9.30;;;18.00;98.30;;;;;;3945064;30;20483;-83
2021/06/24 03:28:17;;;;;;;8.53;7.40;;;18.00;98.30;;;;;;3943364;30;20497;-82
2021/06/24 03:30:22;;;;;;;9.30;6.60;;;18.00;98.30;;;;;;3945241;30;20572;-82
2021/06/24 03:32:26;;;;;;;10.20;7.23;;;17.80;98.30;;;;;;3944848;30;20591;-83
2021/06/24 03:34:29;;;;;;;12.53;9.70;;;17.80;98.30;;;;;;3945224;30;20483;-84
2021/06/24 03:36:34;;;;;;;17.00;13.27;;;17.90;98.30;;;;;;3943651;30;20490;-83
2021/06/24 03:38:37;;;;;;;18.57;14.33;;;17.90;98.30;;;;;;3944737;30;20479;-83
2021/06/24 03:40:40;;;;;;;16.67;11.40;;;17.90;98.30;;;;;;3944228;30;20578;-82
2021/06/24 03:42:43;;;;;;;12.50;10.03;;;17.90;98.30;;;;;;3945312;30;20517;-83
2021/06/24 03:44:46;;;;;;;13.30;7.90;;;17.90;98.30;;;;;;3946384;30;20984;-82
2021/06/24 03:46:49;;;;;;;15.10;7.17;;;17.80;98.30;;;;;;3945962;30;20483;-83
2021/06/24 03:48:55;;;;;;;11.43;6.30;;;17.80;98.30;;;;;;3943894;30;20493;-82
2021/06/24 03:50:58;;;;;;;9.37;7.20;;;17.80;98.30;;;;;;3944954;30;20487;-83
2021/06/24 03:53:03;;;;;;;7.57;6.77;;;17.80;98.30;;;;;;3943104;30;20491;-83
2021/06/24 03:55:08;;;;;;;9.37;6.07;;;17.90;98.30;;;;;;3943479;30;20483;-82
2021/06/24 03:57:31;;;;;;;7.73;6.27;;;17.80;98.30;;;;;;3943958;30;20482;-83
2021/06/24 03:59:34;;;;;;;6.40;5.60;;;17.80;98.30;;;;;;3946061;30;21214;-83
2021/06/24 04:01:42;;;;;;;11.17;6.13;;;17.80;98.30;;;;;;3944621;30;20475;-83
2021/06/24 04:03:45;;;;;;;8.07;6.07;;;17.90;98.30;;;;;;3946351;30;20486;-83
2021/06/24 04:05:48;;;;;;;7.33;6.17;;;17.90;98.30;;;;;;3943672;30;20993;-83
2021/06/24 04:07:51;;;;;;;6.60;5.80;;;17.90;98.30;;;;;;3945925;30;20491;-83
2021/06/24 04:09:56;;;;;;;10.70;6.30;;;17.90;98.30;;;;;;3943625;30;20472;-83
2021/06/24 04:11:59;;;;;;;9.33;5.43;;;17.90;98.30;;;;;;3945510;30;20923;-82
2021/06/24 04:14:02;;;;;;;9.63;5.83;;;17.90;98.30;;;;;;3943349;30;20895;-83
2021/06/24 04:16:07;;;;;;;9.67;6.00;;;18.00;98.30;;;;;;3943730;30;20491;-82
2021/06/24 04:18:10;;;;;;;7.40;5.83;;;17.90;98.30;;;;;;3944042;30;20844;-83
2021/06/24 04:20:14;;;;;;;10.33;5.57;;;18.00;98.30;;;;;;3945996;30;20886;-84
2021/06/24 04:22:17;;;;;;;9.93;6.10;;;18.00;98.30;;;;;;3945928;30;20529;-83
2021/06/24 04:24:20;;;;;;;7.90;6.40;;;18.00;98.30;;;;;;3945975;30;20503;-82
2021/06/24 04:26:24;;;;;;;6.60;5.23;;;17.90;98.30;;;;;;3944353;30;20490;-83
2021/06/24 04:28:27;;;;;;;8.30;6.53;;;17.90;98.30;;;;;;3945165;30;20514;-83
2021/06/24 04:30:31;;;;;;;8.10;5.40;;;17.90;98.30;;;;;;3945317;30;20498;-82
2021/06/24 04:32:34;;;;;;;7.80;5.67;;;17.90;98.30;;;;;;3944713;30;20809;-83
2021/06/24 04:34:37;;;;;;;7.03;5.80;;;17.90;98.30;;;;;;3943824;30;20840;-82
2021/06/24 04:36:43;;;;;;;9.63;6.20;;;17.90;98.30;;;;;;3944579;30;20486;-83
2021/06/24 04:38:46;;;;;;;9.37;6.50;;;17.90;98.30;;;;;;3944836;30;21263;-82
2021/06/24 04:40:49;;;;;;;7.63;5.83;;;17.80;98.30;;;;;;3943737;30;20483;-83
2021/06/24 04:42:54;;;;;;;9.03;6.83;;;17.90;98.30;;;;;;3943674;30;21099;-83
2021/06/24 04:44:57;;;;;;;11.23;6.73;;;17.90;98.30;;;;;;3943775;30;20555;-82
2021/06/24 04:47:00;;;;;;;8.33;6.03;;;17.90;98.30;;;;;;3944622;30;20491;-82
2021/06/24 04:49:03;;;;;;;8.30;6.17;;;17.80;98.30;;;;;;3942512;30;20479;-82
2021/06/24 04:51:06;;;;;;;8.20;5.20;;;17.80;98.30;;;;;;3947563;30;20481;-82
2021/06/24 04:53:09;;;;;;;9.40;6.40;;;17.80;98.30;;;;;;3945243;30;20503;-83
2021/06/24 04:55:14;;;;;;;10.13;5.73;;;17.90;98.30;;;;;;3945222;30;20485;-82
2021/06/24 04:57:17;;;;;;;8.43;6.23;;;17.90;98.30;;;;;;3945273;30;20479;-82
2021/06/24 04:59:21;;;;;;;9.23;6.13;;;18.00;98.30;;;;;;3945506;30;20479;-83
2021/06/24 05:01:24;;;;;;;7.67;5.80;;;17.90;98.30;;;;;;3943997;30;20482;-82
2021/06/24 05:03:28;;;;;;;7.17;5.13;;;18.00;98.30;;;;;;3944845;30;20510;-83
2021/06/24 05:05:31;;;;;;;6.90;5.90;;;18.00;98.30;;;;;;3944559;30;20483;-83
2021/06/24 05:07:35;;;;;;;8.20;6.10;;;18.00;98.30;;;;;;3945632;30;20475;-82
2021/06/24 05:09:41;;;;;;;10.87;6.27;;;18.00;98.30;;;;;;3944960;30;20493;-83
2021/06/24 05:11:44;;;;;;;7.67;5.80;;;17.90;98.30;;;;;;3942933;30;20598;-82
2021/06/24 05:13:47;;;;;;;7.77;5.70;;;18.00;98.30;;;;;;3942888;30;20566;-83
2021/06/24 05:15:51;;;;;;;12.20;6.30;;;18.00;98.30;;;;;;3942436;30;20483;-81
2021/06/24 05:17:54;;;;;;;13.57;6.20;;;17.90;98.30;;;;;;3943989;30;20490;-81
2021/06/24 05:19:58;;;;;;;8.07;6.07;;;17.90;98.30;;;;;;3943330;30;20492;-82
2021/06/24 05:22:02;;;;;;;9.03;6.03;;;17.90;98.30;;;;;;3936854;30;20568;-81
2021/06/24 05:24:06;;;;;;;10.43;6.50;;;17.90;98.30;;;;;;3943365;30;20538;-81
2021/06/24 05:26:09;;;;;;;6.63;5.07;;;18.00;98.30;;;;;;3944351;30;20483;-82
2021/06/24 05:28:12;;;;;;;7.27;6.10;;;18.00;98.30;;;;;;3941200;30;20601;-82
2021/06/24 05:30:20;;;;;;;10.67;5.70;;;18.00;98.30;;;;;;3944458;30;20474;-82
2021/06/24 05:32:24;;;;;;;8.60;5.27;;;18.10;98.30;;;;;;3943907;30;20517;-82
2021/06/24 05:34:27;;;;;;;12.43;6.20;;;18.00;98.30;;;;;;3943851;30;20570;-83
2021/06/24 05:36:31;;;;;;;5.83;5.10;;;18.10;98.30;;;;;;3946326;30;20490;-81
2021/06/24 05:38:34;;;;;;;6.90;5.30;;;18.10;98.30;;;;;;3947183;30;20490;-82
2021/06/24 05:40:37;;;;;;;7.70;5.40;;;18.10;98.30;;;;;;3947828;30;20562;-82
2021/06/24 05:42:40;;;;;;;7.83;5.60;;;18.10;98.30;;;;;;3946977;30;20518;-82
2021/06/24 05:44:44;;;;;;;6.67;5.57;;;18.10;98.30;;;;;;3946057;30;20514;-83
2021/06/24 05:46:47;;;;;;;10.50;5.77;;;18.00;98.30;;;;;;3945042;30;20558;-83
2021/06/24 05:48:58;;;;;;;8.03;5.10;;;18.00;98.30;;;;;;3943608;30;20886;-83
2021/06/24 05:51:09;;;;;;;6.87;5.10;;;18.00;98.30;;;;;;3946666;30;21082;-84
2021/06/24 05:53:12;;;;;;;5.93;5.07;;;18.10;98.30;;;;;;3945440;30;20503;-81
2021/06/24 05:55:17;;;;;;;7.43;5.10;;;18.20;98.30;;;;;;3955927;30;20486;-85
2021/06/24 05:57:20;;;;;;;8.77;5.50;;;18.20;98.30;;;;;;3955419;30;20471;-85
2021/06/24 05:59:23;;;;;;;8.47;4.90;;;18.40;98.30;;;;;;3954774;30;20844;-85
2021/06/24 06:01:28;;;;;;;6.57;4.87;;;18.40;98.30;;;;;;3953111;30;20483;-85
2021/06/24 06:03:31;;;;;;;8.40;5.73;;;18.50;98.30;;;;;;3953268;30;20536;-85
2021/06/24 06:05:36;;;;;;;5.73;4.70;;;18.60;98.30;;;;;;3952936;30;20494;-85
2021/06/24 06:07:39;;;;;;;6.33;4.97;;;18.70;98.30;;;;;;3951281;30;21064;-86
2021/06/24 06:09:43;;;;;;;6.83;4.63;;;18.70;98.30;;;;;;3952012;30;20551;-85
2021/06/24 06:11:46;;;;;;;9.90;5.00;;;18.80;98.30;;;;;;3950783;30;20495;-87
2021/06/24 06:13:49;;;;;;;7.37;4.80;;;18.80;98.30;;;;;;3950910;30;20499;-85
2021/06/24 06:15:53;;;;;;;9.20;5.00;;;18.80;98.30;;;;;;3953246;30;20521;-88
2021/06/24 06:17:56;;;;;;;8.80;4.63;;;18.70;98.30;;;;;;3962420;30;20498;-88
2021/06/24 06:19:59;;;;;;;9.50;4.50;;;18.60;98.30;;;;;;3962915;30;20538;-89
2021/06/24 06:22:04;;;;;;;7.93;4.27;;;18.70;98.30;;;;;;3962675;29;20503;-85
2021/06/24 06:24:08;;;;;;;7.50;5.17;;;18.70;98.30;;;;;;3962413;30;20475;-84
2021/06/24 06:26:11;;;;;;;7.43;5.30;;;18.80;98.30;;;;;;3963790;30;20534;-84
2021/06/24 06:28:15;;;;;;;8.20;4.37;;;18.80;98.30;;;;;;3961656;30;20522;-84
2021/06/24 06:30:22;;;;;;;7.53;5.37;;;18.70;98.30;;;;;;3952761;30;20479;-85
2021/06/24 06:32:25;;;;;;;8.37;4.67;;;18.60;98.30;;;;;;3946816;30;20863;-84
2021/06/24 06:34:28;;;;;;;8.50;5.43;;;18.50;98.30;;;;;;3945577;30;20486;-84
2021/06/24 06:36:31;;;;;;;6.77;4.80;;;18.40;98.30;;;;;;3945100;30;20562;-84
2021/06/24 06:38:35;;;;;;;8.70;5.23;;;18.40;98.30;;;;;;3945118;30;20507;-84
2021/06/24 06:40:39;;;;;;;6.33;4.40;;;18.40;98.30;;;;;;3945546;30;20566;-84
2021/06/24 06:42:43;;;;;;;7.80;4.50;;;18.50;98.30;;;;;;3943934;30;21051;-84
2021/06/24 06:44:46;;;;;;;6.60;5.20;;;18.40;98.30;;;;;;3945140;30;20536;-84
2021/06/24 06:46:49;;;;;;;10.67;5.73;;;18.20;98.30;;;;;;3944685;30;20483;-84
2021/06/24 06:48:53;;;;;;;6.13;4.70;;;18.30;98.30;;;;;;3945375;30;20855;-84
2021/06/24 06:50:56;;;;;;;10.80;4.90;;;18.30;98.30;;;;;;3945565;30;20515;-84
2021/06/24 06:53:06;;;;;;;7.80;5.53;;;18.30;98.30;;;;;;3945155;30;20503;-84
2021/06/24 06:55:15;;;;;;;9.40;6.60;;;18.30;98.30;;;;;;3944813;30;20510;-84
2021/06/24 06:57:18;;;;;;;16.10;10.57;;;18.30;98.30;;;;;;3944699;30;20497;-84
2021/06/24 06:59:23;;;;;;;10.13;7.47;;;18.50;98.30;;;;;;3937520;30;20515;-84
2021/06/24 07:01:41;;;;;;;7.67;5.40;;;18.50;98.30;;;;;;3944032;30;20984;-84
2021/06/24 07:03:44;;;;;;;5.60;5.00;;;18.50;98.30;;;;;;3942864;30;20489;-84
2021/06/24 07:05:47;;;;;;;5.23;4.67;;;18.50;98.30;;;;;;3943082;30;20501;-84
2021/06/24 07:07:56;;;;;;;6.10;5.20;;;18.40;98.30;;;;;;3943576;30;20475;-86
2021/06/24 07:10:08;;;;;;;5.07;4.63;;;18.50;98.30;;;;;;3943899;30;20532;-86
2021/06/24 07:12:39;;;;;;;5.10;4.43;;;18.60;98.30;;;;;;3939686;30;20566;-86
2021/06/24 07:14:47;;;;;;;5.67;4.70;;;18.60;98.30;;;;;;3942989;30;20570;-86
2021/06/24 07:16:55;;;;;;;7.27;5.33;;;18.70;98.30;;;;;;3943807;30;20526;-85
2021/06/24 07:18:59;;;;;;;8.37;5.20;;;18.90;98.30;;;;;;3944454;30;20501;-85
2021/06/24 07:21:23;;;;;;;5.63;4.60;;;19.10;98.30;;;;;;3941564;30;20493;-86
2021/06/24 07:23:32;;;;;;;6.20;4.50;;;19.10;98.30;;;;;;3939686;30;20493;-86
2021/06/24 07:36:04;;;;;;;6.00;4.93;;;19.10;98.30;;;;;;3917541;30;21128;-86
2021/06/24 07:38:16;;;;;;;5.13;4.63;;;19.50;98.30;;;;;;3939516;30;20494;-85
2021/06/24 07:40:43;;;;;;;7.53;4.47;;;19.60;98.30;;;;;;3941714;30;20483;-86
2021/06/24 07:43:10;;;;;;;5.23;4.47;;;19.80;98.30;;;;;;3941270;30;20498;-86
2021/06/24 07:45:16;;;;;;;8.47;6.90;;;20.10;98.30;;;;;;3941977;30;21050;-86
2021/06/24 07:47:34;;;;;;;7.37;6.00;;;20.10;98.30;;;;;;3941587;30;20549;-85
2021/06/24 07:53:05;;;;;;;4.80;4.40;;;20.50;97.00;;;;;;3939687;30;20516;-85
2021/06/24 07:55:42;;;;;;;6.07;4.60;;;20.40;97.30;;;;;;3941528;30;21610;-86
2021/06/24 07:57:58;;;;;;;5.50;4.20;;;20.60;96.60;;;;;;3942399;30;20475;-86
2021/06/24 08:00:09;;;;;;;5.67;4.60;;;20.90;96.10;;;;;;3941712;30;20503;-86
2021/06/24 08:02:17;;;;;;;25.73;22.90;;;21.00;93.80;;;;;;3942191;30;20919;-86
2021/06/24 08:04:28;;;;;;;8.53;5.83;;;21.30;94.00;;;;;;3941945;30;20574;-86
2021/06/24 08:06:42;;;;;;;5.20;4.40;;;21.60;93.80;;;;;;3942194;30;20502;-86
2021/06/24 08:08:54;;;;;;;7.13;5.07;;;21.50;92.00;;;;;;3942334;30;20513;-86
2021/06/24 08:11:06;;;;;;;5.00;4.53;;;21.50;92.70;;;;;;3943626;30;20478;-87
2021/06/24 08:13:15;;;;;;;5.30;4.53;;;21.40;91.80;;;;;;3941552;30;20525;-86
2021/06/24 08:15:20;;;;;;;5.63;5.03;;;21.20;91.70;;;;;;3942950;30;20508;-85
2021/06/24 08:17:27;;;;;;;5.53;4.60;;;21.00;92.10;;;;;;3940405;30;20491;-86
2021/06/24 08:21:59;;;;;;;4.40;4.00;;;21.20;93.50;;;;;;3939589;30;20507;-86
2021/06/24 08:24:17;;;;;;;8.60;4.20;;;21.10;92.10;;;;;;3942854;30;21053;-86
2021/06/24 08:26:41;;;;;;;5.20;4.20;;;20.90;93.20;;;;;;3942678;30;20507;-86
2021/06/24 08:28:46;;;;;;;6.60;3.93;;;20.70;92.70;;;;;;3942133;30;21054;-87
2021/06/24 08:30:49;;;;;;;4.67;4.17;;;20.70;92.90;;;;;;3941568;30;20983;-84
2021/06/24 08:32:53;;;;;;;4.37;3.97;;;20.50;93.30;;;;;;3942104;30;21004;-85
2021/06/24 08:34:59;;;;;;;5.43;4.30;;;20.50;93.40;;;;;;3941646;30;20956;-86
2021/06/24 08:37:05;;;;;;;4.93;3.93;;;20.40;93.70;;;;;;3942278;30;20479;-85
2021/06/24 08:39:20;;;;;;;5.17;3.63;;;20.30;93.70;;;;;;3941687;30;21006;-86
2021/06/24 08:41:53;;;;;;;6.40;4.00;;;20.50;93.70;;;;;;3941636;30;20486;-86
2021/06/24 08:44:11;;;;;;;5.07;4.40;;;20.60;93.70;;;;;;3942785;30;20479;-87
2021/06/24 08:46:23;;;;;;;6.63;5.50;;;20.90;92.90;;;;;;3945116;30;20722;-85
2021/06/24 08:48:37;;;;;;;7.07;3.80;;;20.90;92.40;;;;;;3943521;30;20955;-86
2021/06/24 08:50:57;;;;;;;5.37;4.40;;;20.80;92.80;;;;;;3942158;30;20483;-85
2021/06/24 08:53:02;;;;;;;5.43;4.10;;;20.80;92.40;;;;;;3939823;30;20589;-83
2021/06/24 08:55:08;;;;;;;6.30;4.30;;;20.70;93.30;;;;;;3942112;30;20479;-85
2021/06/24 12:56:19;;;;;;;6.23;5.60;;;23.00;87.20;;;;;;4916837;24;20445;-86
2021/06/24 21:45:00;;;;;;;12.90;11.30;;;18.70;98.30;;;;;;5223662;22;20489;-83
2021/06/24 21:47:04;;;;;;;25.50;19.03;;;18.60;98.30;;;;;;5131270;22;1692712;-83
2021/06/24 21:49:14;;;;;;;5.93;5.17;;;18.70;98.30;;;;;;5198722;22;20180;-86
2021/06/24 21:51:17;;;;;;;7.67;4.67;;;18.60;98.30;;;;;;5203717;22;20426;-83
2021/06/24 21:53:20;;;;;;;6.03;4.00;;;18.50;98.30;;;;;;5205011;22;21266;-82
2021/06/24 21:55:26;;;;;;;4.23;3.83;;;18.50;98.30;;;;;;5205999;22;20434;-83
2021/06/24 21:57:29;;;;;;;3.83;3.53;;;18.40;98.30;;;;;;5196677;22;20518;-81
2021/06/24 21:59:46;;;;;;;4.37;3.70;;;18.30;98.30;;;;;;5204639;22;20422;-83
2021/06/24 22:01:51;;;;;;;4.87;4.37;;;18.30;98.30;;;;;;5204631;22;20449;-82
2021/06/24 22:03:54;;;;;;;5.30;3.70;;;18.30;98.30;;;;;;5204504;22;20534;-81
2021/06/24 22:05:57;;;;;;;38.77;31.23;;;18.30;98.30;;;;;;5193558;22;20457;-82
2021/06/24 22:08:03;;;;;;;16.90;15.20;;;18.30;98.30;;;;;;5202591;22;20488;-82
2021/06/24 22:10:07;;;;;;;44.20;34.87;;;18.30;98.30;;;;;;5195088;22;20426;-82
2021/06/24 22:12:10;;;;;;;19.97;16.73;;;18.30;98.30;;;;;;5204704;22;20434;-83
2021/06/24 22:14:13;;;;;;;10.00;7.63;;;18.30;98.30;;;;;;5204003;22;20484;-80
2021/06/24 22:16:16;;;;;;;7.57;5.57;;;18.40;98.30;;;;;;5203670;22;20423;-82
2021/06/24 22:18:20;;;;;;;4.40;4.00;;;18.30;98.30;;;;;;5204091;22;20414;-82
2021/06/24 22:20:24;;;;;;;4.87;4.37;;;18.30;98.30;;;;;;5196121;22;20437;-82
2021/06/24 22:22:27;;;;;;;4.30;3.90;;;18.20;98.30;;;;;;5204491;22;20445;-83
2021/06/24 22:24:30;;;;;;;5.10;3.97;;;18.20;98.30;;;;;;5205867;22;20912;-81
2021/06/24 22:26:33;;;;;;;6.80;4.40;;;18.30;98.30;;;;;;5197640;22;20440;-80
2021/06/24 22:28:36;;;;;;;5.20;3.80;;;18.20;98.30;;;;;;5203223;22;20415;-82
2021/06/24 22:30:39;;;;;;;4.93;4.43;;;18.10;98.30;;;;;;5195432;22;20484;-83
2021/06/24 22:32:42;;;;;;;4.50;4.10;;;18.00;98.30;;;;;;5204815;22;20441;-81
2021/06/24 22:34:46;;;;;;;7.13;4.37;;;18.00;98.30;;;;;;5205130;22;20427;-82
2021/06/24 22:36:49;;;;;;;15.10;12.43;;;17.90;98.30;;;;;;5204538;22;20445;-81
2021/06/24 22:38:52;;;;;;;15.17;12.10;;;18.00;98.30;;;;;;5196204;22;20775;-80
2021/06/24 22:40:55;;;;;;;36.60;29.47;;;18.10;98.30;;;;;;5196127;22;20434;-82
2021/06/24 22:42:58;;;;;;;9.73;7.80;;;18.10;98.30;;;;;;5195001;22;20484;-82
2021/06/24 22:45:01;;;;;;;7.80;5.63;;;18.00;98.30;;;;;;5194621;22;20431;-81
2021/06/24 22:47:04;;;;;;;4.90;4.50;;;18.00;98.30;;;;;;5195991;22;20904;-82
2021/06/24 22:49:07;;;;;;;7.00;5.00;;;17.90;98.30;;;;;;5195761;22;20912;-81
2021/06/24 22:51:11;;;;;;;6.30;5.13;;;17.90;98.30;;;;;;5204667;22;20423;-81
2021/06/24 22:53:14;;;;;;;10.50;7.00;;;17.70;98.30;;;;;;5204201;22;20439;-82
2021/06/24 22:55:17;;;;;;;6.73;4.93;;;17.70;98.30;;;;;;5209276;22;20441;-80
2021/06/24 22:57:20;;;;;;;5.13;4.43;;;17.70;98.30;;;;;;5216123;22;20486;-81
2021/06/24 22:59:23;;;;;;;7.20;5.17;;;17.70;98.30;;;;;;5215435;22;20449;-79
2021/06/24 23:01:26;;;;;;;5.47;4.93;;;17.60;98.30;;;;;;5214628;22;20419;-80
2021/06/24 23:03:29;;;;;;;4.73;4.17;;;17.70;98.30;;;;;;5216295;22;20465;-80
2021/06/24 23:05:32;;;;;;;5.97;4.23;;;17.60;98.30;;;;;;5207634;22;20427;-81
2021/06/24 23:07:37;;;;;;;4.80;4.30;;;17.60;98.30;;;;;;5207101;22;20418;-81
2021/06/24 23:09:40;;;;;;;5.00;4.50;;;17.50;98.30;;;;;;5211132;22;20422;-82
2021/06/24 23:11:43;;;;;;;5.33;4.80;;;17.50;98.30;;;;;;5207121;22;21047;-79
2021/06/24 23:13:46;;;;;;;6.17;4.40;;;17.50;98.30;;;;;;5198009;22;20454;-81
2021/06/24 23:15:49;;;;;;;5.80;4.73;;;17.60;98.30;;;;;;5206163;22;20418;-82
2021/06/24 23:17:52;;;;;;;5.50;4.47;;;17.50;98.30;;;;;;5198206;22;20442;-82
2021/06/24 23:19:54;;;;;;;4.60;4.20;;;17.60;98.30;;;;;;5208691;22;20423;-81
2021/06/24 23:21:57;;;;;;;6.03;4.50;;;17.50;98.30;;;;;;5208294;22;20449;-82
2021/06/24 23:24:02;;;;;;;5.17;4.77;;;17.50;98.30;;;;;;5208049;22;20442;-82
2021/06/24 23:26:05;;;;;;;5.67;4.70;;;17.50;98.30;;;;;;5208003;22;20997;-83
2021/06/24 23:28:08;;;;;;;4.70;4.20;;;17.50;98.30;;;;;;5208147;22;20430;-82
2021/06/24 23:30:12;;;;;;;4.90;4.40;;;17.40;98.30;;;;;;5200038;22;21050;-81
2021/06/24 23:32:15;;;;;;;4.93;4.43;;;17.40;98.30;;;;;;5208127;22;20456;-81
2021/06/24 23:34:18;;;;;;;6.07;4.40;;;17.30;98.30;;;;;;5200022;22;20491;-81
2021/06/24 23:36:21;;;;;;;7.30;4.77;;;17.30;98.30;;;;;;5207952;22;20457;-81
2021/06/24 23:38:24;;;;;;;5.73;4.90;;;17.40;98.30;;;;;;5198016;22;20427;-81
2021/06/24 23:40:29;;;;;;;5.20;4.53;;;17.40;98.30;;;;;;5210204;22;20418;-82
2021/06/24 23:42:32;;;;;;;5.40;4.37;;;17.40;98.30;;;;;;5198968;22;20451;-83
2021/06/24 23:44:35;;;;;;;5.23;4.73;;;17.40;98.30;;;;;;5198993;22;20443;-82
2021/06/24 23:46:38;;;;;;;5.10;4.50;;;17.30;98.30;;;;;;5206939;22;20434;-82
2021/06/24 23:48:41;;;;;;;7.50;4.77;;;17.30;98.30;;;;;;5197650;22;20462;-82
2021/06/24 23:50:44;;;;;;;5.27;4.70;;;17.20;98.30;;;;;;5199121;22;20431;-81